Time;durP1;ratioP1;P1;durP2;ratioP2;P2;SDS_P1;SDS_P2;PMS_P1;PMS_P2;Temp;Humidity;BMP_temperature;BMP_pressure;BME280_temperature;BME280_humidity;BME280_pressure;Samples;Min_cycle;Max_cycle;Signal;HPM_P1;HPM_P2
2024/04/15 00:00:29;;;;;;;16.67;14.77;;;;;;;;;;5440511;26;19991;-46
2024/04/15 00:02:54;;;;;;;15.82;12.35;;;;;;;;;;5441001;26;20014;-47
2024/04/15 00:05:19;;;;;;;15.50;11.93;;;;;;;;;;5440925;26;20043;-45
2024/04/15 00:07:45;;;;;;;15.90;12.73;;;;;;;;;;5440640;26;20009;-45
2024/04/15 00:10:10;;;;;;;17.55;14.88;;;;;;;;;;5438556;26;20439;-48
2024/04/15 00:12:35;;;;;;;15.93;10.45;;;;;;;;;;5438222;26;19991;-45
2024/04/15 00:15:01;;;;;;;17.88;13.23;;;;;;;;;;5440220;26;20003;-46
2024/04/15 00:17:26;;;;;;;18.48;13.23;;;;;;;;;;5440618;26;19990;-46
2024/04/15 00:19:52;;;;;;;20.20;18.13;;;;;;;;;;5440568;26;19991;-47
2024/04/15 00:22:17;;;;;;;37.72;34.90;;;;;;;;;;5440315;26;20006;-49
2024/04/15 00:24:42;;;;;;;56.83;52.78;;;;;;;;;;5440591;26;20393;-47
2024/04/15 00:27:08;;;;;;;28.30;25.88;;;;;;;;;;5440103;26;20635;-45
2024/04/15 00:29:33;;;;;;;33.55;30.67;;;;;;;;;;5439743;26;20010;-52
2024/04/15 00:31:58;;;;;;;31.30;28.70;;;;;;;;;;5440295;26;20037;-49
2024/04/15 00:34:24;;;;;;;32.42;29.80;;;;;;;;;;5440414;26;20341;-47
2024/04/15 00:36:49;;;;;;;31.98;29.13;;;;;;;;;;5440182;26;20006;-48
2024/04/15 00:39:14;;;;;;;34.33;31.45;;;;;;;;;;5440727;26;20035;-44
2024/04/15 00:41:40;;;;;;;63.50;59.03;;;;;;;;;;5439976;26;20384;-50
2024/04/15 00:44:05;;;;;;;18.38;14.88;;;;;;;;;;5440374;26;19994;-51
2024/04/15 00:46:30;;;;;;;23.25;20.55;;;;;;;;;;5439969;26;19991;-48
2024/04/15 00:48:56;;;;;;;29.17;26.73;;;;;;;;;;5440271;26;19991;-47
2024/04/15 00:51:23;;;;;;;33.45;30.52;;;;;;;;;;5439763;26;20427;-45
2024/04/15 00:53:49;;;;;;;55.63;51.65;;;;;;;;;;5439766;26;20003;-46
2024/04/15 00:56:15;;;;;;;40.97;37.25;;;;;;;;;;5467914;26;20006;-46
2024/04/15 00:58:42;;;;;;;17.38;14.07;;;;;;;;;;5440125;26;20078;-49
2024/04/15 01:01:07;;;;;;;59.72;55.40;;;;;;;;;;5440264;26;19995;-48
2024/04/15 01:03:33;;;;;;;22.10;19.92;;;;;;;;;;5439518;26;20005;-51
2024/04/15 01:05:58;;;;;;;21.80;19.77;;;;;;;;;;5440129;26;20006;-50
2024/04/15 01:08:23;;;;;;;25.33;22.88;;;;;;;;;;5436456;26;19998;-46
2024/04/15 01:10:49;;;;;;;58.33;54.30;;;;;;;;;;5440107;26;20147;-49
2024/04/15 01:13:14;;;;;;;67.50;62.58;;;;;;;;;;5439362;26;20343;-49
2024/04/15 01:15:39;;;;;;;19.85;17.50;;;;;;;;;;5439647;26;19999;-47
2024/04/15 01:18:05;;;;;;;27.52;25.17;;;;;;;;;;5439853;26;20228;-48
2024/04/15 01:20:30;;;;;;;22.45;20.27;;;;;;;;;;5437920;26;20448;-51
2024/04/15 01:23:03;;;;;;;53.35;49.53;;;;;;;;;;5436484;26;19995;-45
2024/04/15 01:25:28;;;;;;;39.42;36.15;;;;;;;;;;5439494;26;20035;-48
2024/04/15 01:27:53;;;;;;;33.30;30.67;;;;;;;;;;5440037;26;19999;-52
2024/04/15 01:30:18;;;;;;;27.20;24.55;;;;;;;;;;5467348;26;20401;-45
2024/04/15 01:32:44;;;;;;;40.28;37.10;;;;;;;;;;5439633;26;19994;-50
2024/04/15 01:35:09;;;;;;;24.50;22.27;;;;;;;;;;5439706;26;19991;-48
2024/04/15 01:37:34;;;;;;;23.77;21.48;;;;;;;;;;5436661;26;20030;-47
2024/04/15 01:40:00;;;;;;;19.00;16.05;;;;;;;;;;5439822;26;20013;-48
2024/04/15 01:42:25;;;;;;;23.05;20.88;;;;;;;;;;5439487;26;20006;-48
2024/04/15 01:44:50;;;;;;;21.20;19.08;;;;;;;;;;5439931;26;19999;-50
2024/04/15 01:47:16;;;;;;;14.85;10.38;;;;;;;;;;5439302;26;20529;-48
2024/04/15 01:49:41;;;;;;;14.18;11.43;;;;;;;;;;5439440;26;20443;-52
2024/04/15 01:52:06;;;;;;;18.65;12.57;;;;;;;;;;5439119;26;19998;-49
2024/04/15 01:54:32;;;;;;;39.88;37.08;;;;;;;;;;5439780;26;20010;-47
2024/04/15 01:56:57;;;;;;;18.50;15.30;;;;;;;;;;5439411;26;20396;-48
2024/04/15 01:59:22;;;;;;;18.25;12.98;;;;;;;;;;5439358;26;20431;-48
2024/04/15 02:01:47;;;;;;;16.80;11.88;;;;;;;;;;5439379;26;20035;-48
2024/04/15 02:04:13;;;;;;;16.60;12.55;;;;;;;;;;5439065;26;20445;-51
2024/04/15 02:06:38;;;;;;;14.93;11.98;;;;;;;;;;5439418;26;20448;-52
2024/04/15 02:09:03;;;;;;;19.08;13.70;;;;;;;;;;5439234;26;19999;-49
2024/04/15 02:11:29;;;;;;;17.70;14.10;;;;;;;;;;5437292;26;20528;-46
2024/04/15 02:13:54;;;;;;;19.08;13.95;;;;;;;;;;5439074;26;20082;-50
2024/04/15 02:16:19;;;;;;;16.75;12.27;;;;;;;;;;5439261;26;20009;-50
2024/04/15 02:18:45;;;;;;;17.35;11.88;;;;;;;;;;5406379;26;20578;-44
2024/04/15 02:21:10;;;;;;;17.45;13.90;;;;;;;;;;5438958;26;20446;-50
2024/04/15 02:23:35;;;;;;;18.75;13.73;;;;;;;;;;5438759;26;20424;-51
2024/04/15 02:26:00;;;;;;;16.67;12.55;;;;;;;;;;5438575;26;20006;-46
2024/04/15 02:28:26;;;;;;;13.43;9.60;;;;;;;;;;5439109;26;20425;-47
2024/04/15 02:30:51;;;;;;;16.70;12.45;;;;;;;;;;5439045;26;20427;-52
2024/04/15 02:33:16;;;;;;;18.90;13.65;;;;;;;;;;5439238;26;19995;-48
2024/04/15 02:35:42;;;;;;;17.25;13.15;;;;;;;;;;5438813;26;20131;-48
2024/04/15 02:38:07;;;;;;;15.52;12.43;;;;;;;;;;5439047;26;19999;-49
2024/04/15 02:40:33;;;;;;;20.38;13.82;;;;;;;;;;5438869;26;20013;-45
2024/04/15 02:42:59;;;;;;;16.15;12.60;;;;;;;;;;5439168;26;20010;-51
2024/04/15 02:45:24;;;;;;;15.43;10.40;;;;;;;;;;5438760;26;19995;-49
2024/04/15 02:47:49;;;;;;;15.88;12.00;;;;;;;;;;5438939;26;20451;-50
2024/04/15 02:50:14;;;;;;;19.83;14.88;;;;;;;;;;5466506;26;20343;-46
2024/04/15 02:52:41;;;;;;;17.42;12.77;;;;;;;;;;5438638;26;20454;-48
2024/04/15 02:55:07;;;;;;;18.67;15.00;;;;;;;;;;5438848;26;20003;-47
2024/04/15 02:57:32;;;;;;;14.20;11.52;;;;;;;;;;5438446;26;20413;-48
2024/04/15 02:59:57;;;;;;;16.25;14.52;;;;;;;;;;5438381;26;20019;-50
2024/04/15 03:02:23;;;;;;;65.70;61.30;;;;;;;;;;5438377;26;20058;-47
2024/04/15 03:04:48;;;;;;;36.78;33.78;;;;;;;;;;5437100;26;20362;-47
2024/04/15 03:07:13;;;;;;;45.88;42.30;;;;;;;;;;5438191;26;19998;-45
2024/04/15 03:09:38;;;;;;;33.28;30.55;;;;;;;;;;5438423;26;20517;-46
2024/04/15 03:12:04;;;;;;;69.85;64.88;;;;;;;;;;5437997;26;20009;-45
2024/04/15 03:14:30;;;;;;;28.10;25.67;;;;;;;;;;5438075;26;20014;-43
2024/04/15 03:16:55;;;;;;;29.60;26.95;;;;;;;;;;5438319;26;20071;-47
2024/04/15 03:19:21;;;;;;;30.52;27.80;;;;;;;;;;5436646;26;20007;-47
2024/04/15 03:21:47;;;;;;;41.80;38.53;;;;;;;;;;5437965;26;20010;-46
2024/04/15 03:24:13;;;;;;;44.92;41.30;;;;;;;;;;5437878;26;20011;-48
2024/04/15 03:26:38;;;;;;;41.22;37.95;;;;;;;;;;5438230;26;20334;-48
2024/04/15 03:29:03;;;;;;;29.73;27.20;;;;;;;;;;5438449;26;19994;-46
2024/04/15 03:31:28;;;;;;;33.20;30.65;;;;;;;;;;5434904;26;20545;-43
2024/04/15 03:33:54;;;;;;;52.65;48.55;;;;;;;;;;5438048;26;20002;-48
2024/04/15 03:36:19;;;;;;;84.32;78.65;;;;;;;;;;5438331;26;19998;-45
2024/04/15 03:38:44;;;;;;;87.40;81.60;;;;;;;;;;5438072;26;20323;-43
2024/04/15 03:41:10;;;;;;;54.15;50.40;;;;;;;;;;5437760;26;20564;-48
2024/04/15 03:43:35;;;;;;;33.70;30.25;;;;;;;;;;5437846;26;20003;-45
2024/04/15 03:46:00;;;;;;;32.75;30.00;;;;;;;;;;5438189;26;20006;-46
2024/04/15 03:48:26;;;;;;;33.03;30.17;;;;;;;;;;5438048;26;20476;-47
2024/04/15 03:50:51;;;;;;;34.28;31.27;;;;;;;;;;5437973;26;19998;-46
2024/04/15 03:53:17;;;;;;;29.58;26.70;;;;;;;;;;5437600;26;20393;-46
2024/04/15 03:55:50;;;;;;;30.08;27.08;;;;;;;;;;5437758;26;19999;-45
2024/04/15 03:58:16;;;;;;;25.83;23.58;;;;;;;;;;5438073;26;20342;-45
2024/04/15 04:00:41;;;;;;;32.60;29.85;;;;;;;;;;5405273;26;19999;-47
2024/04/15 04:03:07;;;;;;;30.88;28.35;;;;;;;;;;5435777;26;20072;-48
2024/04/15 04:05:32;;;;;;;31.80;29.08;;;;;;;;;;5428933;26;20335;-44
2024/04/15 04:07:57;;;;;;;28.92;26.17;;;;;;;;;;5437176;26;20014;-47
2024/04/15 04:10:23;;;;;;;35.08;32.13;;;;;;;;;;5404765;26;19995;-46
2024/04/15 04:12:48;;;;;;;54.83;50.70;;;;;;;;;;5435596;26;20006;-46
2024/04/15 04:15:13;;;;;;;57.05;52.80;;;;;;;;;;5437251;26;20331;-48
2024/04/15 04:17:38;;;;;;;22.67;20.38;;;;;;;;;;5437221;26;20027;-44
2024/04/15 04:20:04;;;;;;;20.55;18.50;;;;;;;;;;5437723;26;19991;-50
2024/04/15 04:22:29;;;;;;;47.38;43.75;;;;;;;;;;5437232;26;20009;-45
2024/04/15 04:24:54;;;;;;;23.65;21.52;;;;;;;;;;5437710;26;19991;-43
2024/04/15 04:27:20;;;;;;;36.75;33.03;;;;;;;;;;5435409;26;20010;-45
2024/04/15 04:29:45;;;;;;;30.83;27.98;;;;;;;;;;5437634;26;19998;-45
2024/04/15 04:32:10;;;;;;;29.52;26.90;;;;;;;;;;5437178;26;20064;-45
2024/04/15 04:34:36;;;;;;;30.33;27.67;;;;;;;;;;5437230;26;20332;-45
2024/04/15 04:37:01;;;;;;;27.67;25.08;;;;;;;;;;5437091;26;20009;-47
2024/04/15 04:39:26;;;;;;;38.20;34.60;;;;;;;;;;5437180;26;20011;-46
2024/04/15 04:41:52;;;;;;;39.10;35.90;;;;;;;;;;5434528;26;20356;-44
2024/04/15 04:44:17;;;;;;;67.55;62.97;;;;;;;;;;5440329;26;19995;-46
2024/04/15 04:46:43;;;;;;;25.33;22.92;;;;;;;;;;5441106;26;20005;-46
2024/04/15 04:49:09;;;;;;;43.85;40.50;;;;;;;;;;5440727;26;19995;-46
2024/04/15 04:51:35;;;;;;;34.55;31.52;;;;;;;;;;5407778;26;20001;-43
2024/04/15 04:54:00;;;;;;;39.22;35.83;;;;;;;;;;5440258;26;19995;-48
2024/04/15 04:56:25;;;;;;;45.38;41.92;;;;;;;;;;5440667;26;19995;-46
2024/04/15 04:58:50;;;;;;;61.60;57.17;;;;;;;;;;5440766;26;20018;-49
2024/04/15 05:01:19;;;;;;;68.03;63.58;;;;;;;;;;5440410;26;20003;-46
2024/04/15 05:03:45;;;;;;;34.75;31.95;;;;;;;;;;5440530;26;20011;-50
2024/04/15 05:06:11;;;;;;;30.35;27.20;;;;;;;;;;5440614;26;20470;-46
2024/04/15 05:08:36;;;;;;;37.00;33.88;;;;;;;;;;5440555;26;20003;-48
2024/04/15 05:11:02;;;;;;;32.25;29.08;;;;;;;;;;5440237;26;19998;-44
2024/04/15 05:13:27;;;;;;;25.05;22.67;;;;;;;;;;5440064;26;20002;-45
2024/04/15 05:16:00;;;;;;;32.15;29.38;;;;;;;;;;5440280;26;20010;-47
2024/04/15 05:18:26;;;;;;;42.53;38.88;;;;;;;;;;5440311;26;20017;-44
2024/04/15 05:20:51;;;;;;;35.67;32.78;;;;;;;;;;5440805;26;19995;-49
2024/04/15 05:23:16;;;;;;;43.53;40.15;;;;;;;;;;5439473;26;20010;-47
2024/04/15 05:25:41;;;;;;;35.28;32.53;;;;;;;;;;5407737;26;20002;-43
2024/04/15 05:28:07;;;;;;;33.63;30.85;;;;;;;;;;5440112;26;20582;-47
2024/04/15 05:30:32;;;;;;;29.83;26.85;;;;;;;;;;5440547;26;20435;-46
2024/04/15 05:32:57;;;;;;;25.40;23.02;;;;;;;;;;5438542;26;19995;-43
2024/04/15 05:35:23;;;;;;;34.25;31.27;;;;;;;;;;5439064;26;20618;-45
2024/04/15 05:37:48;;;;;;;40.97;27.77;;;;;;;;;;5439476;26;19994;-45
2024/04/15 05:40:13;;;;;;;39.42;29.88;;;;;;;;;;5439216;26;19994;-47
2024/04/15 05:42:38;;;;;;;37.72;23.05;;;;;;;;;;5439819;26;19999;-44
2024/04/15 05:45:04;;;;;;;46.13;28.27;;;;;;;;;;5434017;26;20076;-47
2024/04/15 05:47:29;;;;;;;42.15;31.90;;;;;;;;;;5442763;26;19999;-51
2024/04/15 05:49:54;;;;;;;45.47;37.38;;;;;;;;;;5435582;26;20007;-45
2024/04/15 05:52:20;;;;;;;59.03;32.20;;;;;;;;;;5435063;26;20969;-47
2024/04/15 05:54:45;;;;;;;57.25;33.67;;;;;;;;;;5427933;26;20010;-49
2024/04/15 05:57:10;;;;;;;39.42;30.75;;;;;;;;;;5436200;26;20036;-47
2024/04/15 05:59:36;;;;;;;30.40;27.23;;;;;;;;;;5436957;26;19998;-48
2024/04/15 06:02:01;;;;;;;38.33;32.33;;;;;;;;;;5430222;26;19999;-48
2024/04/15 06:04:27;;;;;;;36.65;32.08;;;;;;;;;;5440991;26;20459;-48
2024/04/15 06:06:52;;;;;;;41.45;29.00;;;;;;;;;;5432542;26;20014;-46
2024/04/15 06:09:17;;;;;;;37.15;27.77;;;;;;;;;;5432593;26;20075;-49
2024/04/15 06:11:43;;;;;;;35.40;24.38;;;;;;;;;;5432952;26;19999;-48
2024/04/15 06:14:08;;;;;;;36.75;27.15;;;;;;;;;;5432864;26;19999;-50
2024/04/15 06:16:33;;;;;;;48.28;29.13;;;;;;;;;;5417201;26;20443;-49
2024/04/15 06:18:59;;;;;;;36.58;28.50;;;;;;;;;;5416792;26;19994;-51
2024/04/15 06:21:26;;;;;;;43.60;31.30;;;;;;;;;;5402870;26;20838;-49
2024/04/15 06:23:51;;;;;;;43.80;28.98;;;;;;;;;;5406327;26;20010;-49
2024/04/15 06:26:16;;;;;;;34.88;31.17;;;;;;;;;;5419424;26;20012;-49
2024/04/15 06:28:42;;;;;;;35.88;29.92;;;;;;;;;;5408904;26;20068;-49
2024/04/15 06:31:07;;;;;;;40.80;29.30;;;;;;;;;;5407913;26;19999;-48
2024/04/15 06:33:33;;;;;;;38.80;26.92;;;;;;;;;;5419152;26;20067;-49
2024/04/15 06:35:58;;;;;;;40.55;28.08;;;;;;;;;;5411028;26;19999;-52
2024/04/15 06:38:24;;;;;;;33.17;24.20;;;;;;;;;;5411126;26;20390;-47
2024/04/15 06:40:49;;;;;;;33.53;22.60;;;;;;;;;;5433120;26;19995;-50
2024/04/15 06:43:14;;;;;;;43.35;29.48;;;;;;;;;;5431638;26;20006;-46
2024/04/15 06:45:40;;;;;;;39.42;28.27;;;;;;;;;;5433646;26;20496;-48
2024/04/15 06:48:05;;;;;;;28.25;23.20;;;;;;;;;;5432690;26;20317;-48
2024/04/15 06:50:30;;;;;;;33.90;23.73;;;;;;;;;;5434026;26;20443;-47
2024/04/15 06:52:56;;;;;;;36.22;20.98;;;;;;;;;;5432036;26;19999;-50
2024/04/15 06:55:21;;;;;;;39.13;29.13;;;;;;;;;;5433467;26;20010;-51
2024/04/15 06:57:46;;;;;;;36.92;28.77;;;;;;;;;;5433322;26;20003;-49
2024/04/15 07:00:12;;;;;;;43.42;30.23;;;;;;;;;;5427782;26;20071;-50
2024/04/15 07:02:37;;;;;;;28.73;25.13;;;;;;;;;;5431957;26;21332;-45
2024/04/15 07:05:03;;;;;;;40.65;31.63;;;;;;;;;;5407527;26;20010;-45
2024/04/15 07:07:28;;;;;;;46.15;30.65;;;;;;;;;;5424519;26;20016;-48
2024/04/15 07:09:53;;;;;;;37.45;25.63;;;;;;;;;;5431973;26;20439;-49
2024/04/15 07:12:19;;;;;;;59.88;27.60;;;;;;;;;;5432453;26;20003;-46
2024/04/15 07:14:45;;;;;;;52.22;34.53;;;;;;;;;;5428084;26;19999;-48
2024/04/15 07:17:10;;;;;;;47.08;36.55;;;;;;;;;;5422730;26;20003;-48
2024/04/15 07:19:35;;;;;;;35.70;31.63;;;;;;;;;;5436922;26;20003;-49
2024/04/15 07:22:00;;;;;;;42.30;30.55;;;;;;;;;;5423321;26;21302;-46
2024/04/15 07:24:26;;;;;;;37.67;31.20;;;;;;;;;;5430615;26;20064;-48
2024/04/15 07:26:52;;;;;;;50.03;32.97;;;;;;;;;;5418502;26;19999;-48
2024/04/15 07:29:18;;;;;;;42.75;31.25;;;;;;;;;;5428677;26;20014;-49
2024/04/15 07:31:43;;;;;;;43.58;29.20;;;;;;;;;;5417796;26;20431;-49
2024/04/15 07:34:08;;;;;;;39.35;25.20;;;;;;;;;;5431809;26;19999;-50
2024/04/15 07:36:34;;;;;;;32.45;22.00;;;;;;;;;;5448630;26;20705;-47
2024/04/15 07:38:59;;;;;;;48.58;35.60;;;;;;;;;;5433555;26;20075;-49
2024/04/15 07:41:25;;;;;;;49.65;30.67;;;;;;;;;;5442577;26;19998;-51
2024/04/15 07:43:50;;;;;;;40.40;27.95;;;;;;;;;;5436937;26;20029;-46
2024/04/15 07:46:15;;;;;;;38.55;33.08;;;;;;;;;;5429465;26;20448;-53
2024/04/15 07:48:41;;;;;;;33.38;26.00;;;;;;;;;;5435439;26;20414;-51
2024/04/15 07:51:06;;;;;;;44.85;30.25;;;;;;;;;;5433383;26;20007;-49
2024/04/15 07:53:31;;;;;;;26.73;22.23;;;;;;;;;;5434823;26;20014;-46
2024/04/15 07:55:57;;;;;;;27.85;23.35;;;;;;;;;;5434755;26;19995;-51
2024/04/15 07:58:22;;;;;;;49.78;36.97;;;;;;;;;;5427973;26;20003;-49
2024/04/15 08:00:47;;;;;;;36.35;29.23;;;;;;;;;;5435300;26;20002;-46
2024/04/15 08:03:13;;;;;;;55.20;25.70;;;;;;;;;;5436741;26;20014;-49
2024/04/15 08:05:39;;;;;;;38.15;33.75;;;;;;;;;;5418290;26;20022;-48
2024/04/15 08:08:06;;;;;;;36.95;33.13;;;;;;;;;;5424835;26;20003;-49
2024/04/15 08:10:31;;;;;;;38.40;34.92;;;;;;;;;;5432315;26;20071;-48
2024/04/15 08:12:56;;;;;;;38.08;32.75;;;;;;;;;;5422805;26;20007;-50
2024/04/15 08:15:22;;;;;;;36.92;30.30;;;;;;;;;;5431778;26;20319;-44
2024/04/15 08:17:47;;;;;;;46.25;35.42;;;;;;;;;;5435127;26;19990;-49
2024/04/15 08:20:12;;;;;;;35.17;31.73;;;;;;;;;;5434488;26;20071;-51
2024/04/15 08:22:38;;;;;;;33.28;29.77;;;;;;;;;;5434287;26;20504;-45
2024/04/15 08:25:08;;;;;;;39.28;36.03;;;;;;;;;;5437926;26;20009;-50
2024/04/15 08:27:34;;;;;;;38.55;35.28;;;;;;;;;;5437836;26;20576;-51
2024/04/15 08:29:59;;;;;;;37.20;34.05;;;;;;;;;;5435947;26;20010;-50
2024/04/15 08:32:24;;;;;;;34.40;31.20;;;;;;;;;;5458435;26;20081;-51
2024/04/15 08:34:50;;;;;;;31.65;28.52;;;;;;;;;;5442512;26;19994;-48
2024/04/15 08:37:15;;;;;;;27.25;24.42;;;;;;;;;;5436510;26;19995;-51
2024/04/15 08:39:42;;;;;;;25.20;22.73;;;;;;;;;;5438041;26;20325;-51
2024/04/15 08:42:16;;;;;;;27.85;25.50;;;;;;;;;;5447170;26;20018;-52
2024/04/15 08:44:44;;;;;;;29.38;25.00;;;;;;;;;;5440425;26;20039;-49
2024/04/15 08:47:12;;;;;;;81.82;76.30;;;;;;;;;;5439184;26;20966;-46
2024/04/15 08:49:39;;;;;;;40.35;37.35;;;;;;;;;;5440806;26;20465;-52
2024/04/15 08:52:04;;;;;;;27.10;24.63;;;;;;;;;;5441009;26;19998;-53
2024/04/15 08:54:30;;;;;;;29.75;26.65;;;;;;;;;;5429775;26;19992;-48
2024/04/15 08:56:58;;;;;;;30.80;27.60;;;;;;;;;;5462061;26;20078;-50
2024/04/15 08:59:23;;;;;;;30.63;23.23;;;;;;;;;;5477159;26;20014;-50
2024/04/15 09:01:48;;;;;;;27.52;24.70;;;;;;;;;;5455219;26;20515;-48
2024/04/15 09:04:14;;;;;;;25.40;23.05;;;;;;;;;;5476997;26;19995;-48
2024/04/15 09:06:39;;;;;;;27.02;24.65;;;;;;;;;;5447811;26;20335;-50
2024/04/15 09:09:05;;;;;;;31.92;29.30;;;;;;;;;;5407653;26;19991;-46
2024/04/15 09:11:36;;;;;;;31.05;28.17;;;;;;;;;;5440806;26;19995;-50
2024/04/15 09:14:01;;;;;;;27.98;25.67;;;;;;;;;;5440907;26;20013;-48
2024/04/15 09:16:28;;;;;;;31.15;28.33;;;;;;;;;;5437161;26;19995;-47
2024/04/15 09:18:53;;;;;;;25.42;22.90;;;;;;;;;;5471024;26;20012;-49
2024/04/15 09:21:20;;;;;;;36.50;32.95;;;;;;;;;;5476306;26;20327;-51
2024/04/15 09:23:45;;;;;;;32.15;28.85;;;;;;;;;;5476341;26;20002;-50
2024/04/15 09:26:10;;;;;;;31.27;28.38;;;;;;;;;;5455905;26;19999;-51
2024/04/15 09:28:36;;;;;;;33.88;30.98;;;;;;;;;;5436656;26;20009;-50
2024/04/15 09:31:01;;;;;;;32.50;29.40;;;;;;;;;;5439781;26;20598;-47
2024/04/15 09:33:27;;;;;;;35.45;32.35;;;;;;;;;;5439285;26;19995;-46
2024/04/15 09:35:53;;;;;;;30.05;27.13;;;;;;;;;;5437864;26;20049;-53
2024/04/15 09:38:19;;;;;;;24.58;20.55;;;;;;;;;;5439918;26;20443;-47
2024/04/15 09:40:45;;;;;;;40.40;31.13;;;;;;;;;;5438190;26;20006;-46
2024/04/15 09:43:11;;;;;;;27.25;24.10;;;;;;;;;;5433641;26;20009;-50
2024/04/15 09:45:36;;;;;;;28.48;25.08;;;;;;;;;;5427184;26;20522;-42
2024/04/15 09:48:02;;;;;;;26.80;23.98;;;;;;;;;;5421364;26;20451;-48
2024/04/15 09:50:28;;;;;;;28.08;24.85;;;;;;;;;;5432746;26;20094;-47
2024/04/15 09:52:58;;;;;;;36.60;27.02;;;;;;;;;;5423169;26;20018;-51
2024/04/15 09:55:30;;;;;;;31.98;27.02;;;;;;;;;;5436321;26;19999;-47
2024/04/15 09:57:57;;;;;;;27.90;21.65;;;;;;;;;;5436632;26;20011;-46
2024/04/15 10:00:25;;;;;;;461.02;303.65;;;;;;;;;;5437276;26;19999;-52
2024/04/15 10:02:54;;;;;;;702.55;433.65;;;;;;;;;;5437763;26;20003;-49
2024/04/15 10:05:22;;;;;;;683.97;438.50;;;;;;;;;;5439277;26;20350;-49
2024/04/15 10:07:57;;;;;;;26.45;19.80;;;;;;;;;;5446793;26;19994;-45
2024/04/15 10:10:23;;;;;;;29.40;21.65;;;;;;;;;;5437298;26;20331;-47
2024/04/15 10:12:49;;;;;;;26.90;20.95;;;;;;;;;;5435611;26;20366;-49
2024/04/15 10:15:15;;;;;;;26.08;22.33;;;;;;;;;;5434735;26;20017;-49
2024/04/15 10:17:40;;;;;;;26.08;18.20;;;;;;;;;;5438324;26;19995;-53
2024/04/15 10:20:10;;;;;;;18.08;14.38;;;;;;;;;;5398859;26;20007;-49
2024/04/15 10:22:39;;;;;;;25.38;18.10;;;;;;;;;;5431121;26;19999;-50
2024/04/15 10:25:07;;;;;;;19.65;17.58;;;;;;;;;;5438186;26;19999;-51
2024/04/15 10:27:32;;;;;;;26.10;23.53;;;;;;;;;;5428246;26;19995;-46
2024/04/15 10:29:57;;;;;;;21.52;18.77;;;;;;;;;;5428768;26;20071;-46
2024/04/15 10:32:24;;;;;;;25.35;18.55;;;;;;;;;;5436812;26;20496;-43
2024/04/15 10:34:49;;;;;;;24.45;18.17;;;;;;;;;;5438354;26;20215;-48
2024/04/15 10:37:15;;;;;;;23.83;18.35;;;;;;;;;;5438300;26;20009;-47
2024/04/15 10:39:46;;;;;;;21.23;18.63;;;;;;;;;;5441072;26;20076;-45
2024/04/15 10:42:12;;;;;;;19.13;14.77;;;;;;;;;;5437417;26;20332;-46
2024/04/15 10:44:37;;;;;;;20.65;13.88;;;;;;;;;;5438072;26;20465;-43
2024/04/15 10:47:04;;;;;;;444.25;234.70;;;;;;;;;;5437846;26;20013;-44
2024/04/15 10:49:29;;;;;;;678.75;409.20;;;;;;;;;;5428448;26;19999;-45
2024/04/15 10:51:54;;;;;;;680.83;363.00;;;;;;;;;;5435346;26;20035;-45
2024/04/15 10:54:20;;;;;;;667.40;356.67;;;;;;;;;;5436781;26;20519;-47
2024/04/15 10:56:46;;;;;;;677.40;396.20;;;;;;;;;;5437695;26;20504;-45
2024/04/15 10:59:12;;;;;;;665.60;361.55;;;;;;;;;;5437295;26;20011;-51
2024/04/15 11:01:38;;;;;;;661.50;287.23;;;;;;;;;;5441345;26;20059;-47
2024/04/15 11:04:06;;;;;;;671.47;276.38;;;;;;;;;;5438019;26;20005;-45
2024/04/15 11:06:33;;;;;;;711.92;302.15;;;;;;;;;;5434148;26;20121;-46
2024/04/15 11:08:58;;;;;;;646.50;244.30;;;;;;;;;;5436886;26;19999;-47
2024/04/15 11:11:24;;;;;;;651.40;270.38;;;;;;;;;;5437472;26;20418;-49
2024/04/15 11:13:49;;;;;;;648.25;232.48;;;;;;;;;;5441541;26;20017;-46
2024/04/15 11:16:14;;;;;;;23.48;21.05;;;;;;;;;;5466584;26;20031;-48
2024/04/15 11:18:39;;;;;;;19.27;17.27;;;;;;;;;;5431867;26;20525;-44
2024/04/15 11:21:06;;;;;;;16.58;14.55;;;;;;;;;;5420247;26;20011;-44
2024/04/15 11:23:32;;;;;;;15.98;14.02;;;;;;;;;;5422393;26;20022;-43
2024/04/15 11:25:59;;;;;;;19.85;14.35;;;;;;;;;;5423802;26;20000;-45
2024/04/15 11:28:25;;;;;;;27.00;24.92;;;;;;;;;;5429786;26;20003;-47
2024/04/15 11:30:50;;;;;;;25.17;21.45;;;;;;;;;;5421988;26;20020;-45
2024/04/15 11:33:16;;;;;;;21.10;17.52;;;;;;;;;;5420919;26;19995;-44
2024/04/15 11:35:48;;;;;;;26.13;18.80;;;;;;;;;;5435406;26;20013;-44
2024/04/15 11:38:13;;;;;;;13.48;11.27;;;;;;;;;;5423895;26;20533;-51
2024/04/15 11:40:39;;;;;;;15.15;13.02;;;;;;;;;;5400433;26;20014;-43
2024/04/15 11:43:04;;;;;;;20.73;18.52;;;;;;;;;;5433720;26;20079;-47
2024/04/15 11:45:30;;;;;;;16.30;14.02;;;;;;;;;;5415921;26;20000;-49
2024/04/15 11:47:56;;;;;;;12.88;10.63;;;;;;;;;;5398305;26;20185;-48
2024/04/15 11:50:22;;;;;;;22.48;18.98;;;;;;;;;;5433685;26;19994;-44
2024/04/15 11:52:47;;;;;;;29.70;20.38;;;;;;;;;;5433259;26;20014;-47
2024/04/15 11:55:16;;;;;;;21.65;19.25;;;;;;;;;;5436906;26;19998;-45
2024/04/15 11:57:42;;;;;;;17.05;15.25;;;;;;;;;;5437027;26;20045;-48
2024/04/15 12:00:07;;;;;;;18.75;16.30;;;;;;;;;;5440806;26;20424;-44
2024/04/15 12:02:36;;;;;;;17.60;15.70;;;;;;;;;;5423361;26;20011;-45
2024/04/15 12:05:02;;;;;;;20.45;16.23;;;;;;;;;;5423858;26;19990;-42
2024/04/15 12:07:27;;;;;;;18.13;16.20;;;;;;;;;;5426672;26;20047;-42
2024/04/15 12:09:54;;;;;;;17.30;13.73;;;;;;;;;;5428938;26;20007;-44
2024/04/15 12:12:19;;;;;;;697.40;410.17;;;;;;;;;;5435812;26;19991;-46
2024/04/15 12:14:44;;;;;;;660.42;324.08;;;;;;;;;;5426863;26;20006;-45
2024/04/15 12:17:10;;;;;;;679.65;399.02;;;;;;;;;;5404219;26;19999;-43
2024/04/15 12:19:35;;;;;;;664.78;233.18;;;;;;;;;;5426682;26;19996;-43
2024/04/15 12:22:00;;;;;;;692.58;457.60;;;;;;;;;;5439670;26;20009;-45
2024/04/15 12:24:27;;;;;;;695.67;412.30;;;;;;;;;;5437502;26;20002;-46
2024/04/15 12:26:52;;;;;;;705.33;466.90;;;;;;;;;;5438903;26;20005;-44
2024/04/15 12:29:17;;;;;;;667.55;299.55;;;;;;;;;;5439191;26;19998;-45
2024/04/15 12:31:42;;;;;;;674.72;390.30;;;;;;;;;;5439676;26;20462;-44
2024/04/15 12:34:08;;;;;;;680.88;410.77;;;;;;;;;;5437226;26;20381;-43
2024/04/15 12:36:34;;;;;;;699.72;426.83;;;;;;;;;;5430714;26;20100;-43
2024/04/15 12:38:59;;;;;;;681.55;417.80;;;;;;;;;;5433572;26;20013;-44
2024/04/15 12:41:24;;;;;;;483.30;285.08;;;;;;;;;;5434052;26;19995;-45
2024/04/15 12:43:49;;;;;;;677.13;433.98;;;;;;;;;;5432140;26;20006;-43
2024/04/15 12:46:15;;;;;;;681.65;386.60;;;;;;;;;;5437089;26;20050;-48
2024/04/15 12:48:40;;;;;;;470.95;236.52;;;;;;;;;;5439928;26;19999;-46
2024/04/15 13:03:44;;;;;;;691.88;397.15;;;;;;;;;;5400033;26;20282;-53
2024/04/15 13:06:10;;;;;;;79.78;28.05;;;;;;;;;;5354795;26;20005;-51
2024/04/15 13:08:35;;;;;;;646.42;243.35;;;;;;;;;;5355500;26;20116;-50
2024/04/15 13:11:01;;;;;;;646.60;293.35;;;;;;;;;;5337142;26;20828;-48
2024/04/15 13:13:26;;;;;;;693.47;423.35;;;;;;;;;;5350761;26;20348;-49
2024/04/15 13:15:51;;;;;;;446.88;211.77;;;;;;;;;;5317725;26;20473;-49
2024/04/15 13:18:17;;;;;;;663.45;330.27;;;;;;;;;;5352983;26;20079;-51
2024/04/15 13:20:42;;;;;;;643.58;242.25;;;;;;;;;;5354849;26;20000;-49
2024/04/15 13:23:07;;;;;;;14.23;12.43;;;;;;;;;;5353377;26;19993;-51
2024/04/15 13:25:33;;;;;;;17.02;15.30;;;;;;;;;;5353551;26;20015;-51
2024/04/15 13:27:59;;;;;;;680.65;411.23;;;;;;;;;;5352828;26;20008;-50
2024/04/15 13:30:24;;;;;;;464.60;272.25;;;;;;;;;;5354770;26;20066;-53
2024/04/15 13:32:49;;;;;;;686.92;429.30;;;;;;;;;;5355536;26;20008;-48
2024/04/15 13:35:15;;;;;;;704.90;492.50;;;;;;;;;;5351179;26;20415;-52
2024/04/15 13:37:40;;;;;;;693.05;484.15;;;;;;;;;;5383171;26;20050;-49
2024/04/15 13:40:06;;;;;;;709.05;537.10;;;;;;;;;;5296428;26;20503;-46
2024/04/15 13:42:31;;;;;;;707.97;516.85;;;;;;;;;;5389742;26;20019;-48
2024/04/15 13:44:57;;;;;;;465.10;341.63;;;;;;;;;;5363334;26;19996;-50
2024/04/15 13:47:22;;;;;;;688.35;476.27;;;;;;;;;;5352716;26;20000;-48
2024/04/15 13:49:47;;;;;;;708.10;518.05;;;;;;;;;;5354536;26;19997;-48
2024/04/15 13:52:13;;;;;;;476.08;332.30;;;;;;;;;;5345992;26;20350;-48
2024/04/15 13:54:39;;;;;;;700.90;505.15;;;;;;;;;;5345292;26;20016;-50
2024/04/15 13:57:04;;;;;;;488.55;319.05;;;;;;;;;;5335550;26;20016;-51
2024/04/15 13:59:29;;;;;;;706.17;483.33;;;;;;;;;;5350298;26;19996;-50
2024/04/15 14:01:56;;;;;;;693.65;478.75;;;;;;;;;;5339139;26;20015;-49
2024/04/15 14:04:21;;;;;;;475.05;305.35;;;;;;;;;;5325089;26;20078;-48
2024/04/15 14:06:47;;;;;;;463.63;263.85;;;;;;;;;;5319881;26;20002;-53
2024/04/15 14:09:14;;;;;;;21.98;18.83;;;;;;;;;;5332679;26;19993;-54
2024/04/15 14:11:42;;;;;;;18.95;17.25;;;;;;;;;;5311629;26;20943;-48
2024/04/15 14:14:08;;;;;;;24.48;22.20;;;;;;;;;;5311219;26;19996;-48
2024/04/15 14:16:33;;;;;;;668.67;416.77;;;;;;;;;;5336732;26;20327;-52